Time;durP1;ratioP1;P1;durP2;ratioP2;P2;SDS_P1;SDS_P2;PMS_P1;PMS_P2;Temp;Humidity;BMP_temperature;BMP_pressure;BME280_temperature;BME280_humidity;BME280_pressure;Samples;Min_cycle;Max_cycle;Signal;HPM_P1;HPM_P2
2024/01/11 00:03:00;;;;;;;41.00;25.07;;;-0.20;58.80;;;;;;10407291;28;20220;-62
2024/01/11 00:08:05;;;;;;;46.20;25.00;;;-0.30;59.40;;;;;;10430620;23;20235;-66
2024/01/11 00:13:09;;;;;;;43.27;24.80;;;-0.30;59.00;;;;;;10408380;28;20203;-68
2024/01/11 00:18:13;;;;;;;39.90;24.20;;;-0.30;58.90;;;;;;10403927;28;20278;-68
2024/01/11 00:23:18;;;;;;;44.90;25.17;;;-0.30;58.90;;;;;;10409646;28;20201;-68
2024/01/11 00:28:21;;;;;;;39.97;24.10;;;-0.40;59.00;;;;;;10410010;28;20275;-67
2024/01/11 00:33:25;;;;;;;41.57;25.20;;;-0.40;59.20;;;;;;10410118;28;20205;-68
2024/01/11 00:38:30;;;;;;;39.40;24.87;;;-0.40;60.00;;;;;;10405155;28;20274;-68
2024/01/11 00:43:33;;;;;;;42.00;25.27;;;-0.40;59.20;;;;;;10404287;28;20227;-69
2024/01/11 00:48:37;;;;;;;39.57;24.67;;;-0.40;59.10;;;;;;10407734;28;20212;-69
2024/01/11 00:53:42;;;;;;;43.17;25.77;;;-0.50;59.30;;;;;;10408989;28;20567;-67
2024/01/11 00:58:46;;;;;;;40.43;24.07;;;-0.50;59.30;;;;;;10403037;28;20290;-68
2024/01/11 01:03:49;;;;;;;43.03;25.50;;;-0.60;59.40;;;;;;10407717;28;20663;-68
2024/01/11 01:08:56;;;;;;;38.40;24.53;;;-0.60;59.40;;;;;;10407300;28;20304;-67
2024/01/11 01:13:59;;;;;;;41.07;23.20;;;-0.60;59.40;;;;;;10403329;28;20255;-67
2024/01/11 01:19:03;;;;;;;39.00;23.10;;;-0.60;59.40;;;;;;10402558;28;20231;-68
2024/01/11 01:24:08;;;;;;;40.37;24.50;;;-0.60;59.70;;;;;;10404730;28;20290;-67
2024/01/11 01:29:12;;;;;;;42.27;24.53;;;-0.70;59.60;;;;;;10400329;28;20633;-68
2024/01/11 01:34:16;;;;;;;39.20;24.23;;;-0.70;59.60;;;;;;10398630;28;20543;-67
2024/01/11 01:39:21;;;;;;;43.93;24.07;;;-0.80;59.80;;;;;;10403811;28;20258;-68
2024/01/11 01:44:24;;;;;;;43.83;24.13;;;-0.80;59.50;;;;;;10405760;28;20204;-67
2024/01/11 01:49:28;;;;;;;41.10;24.90;;;-0.80;59.90;;;;;;10407174;28;20220;-65
2024/01/11 01:54:33;;;;;;;41.17;25.40;;;-0.90;59.80;;;;;;10407763;28;20201;-66
2024/01/11 01:59:38;;;;;;;42.10;25.40;;;-0.90;59.90;;;;;;10405825;28;20226;-67
2024/01/11 02:04:42;;;;;;;43.30;25.43;;;-0.90;59.80;;;;;;10405414;28;20803;-66
2024/01/11 02:09:50;;;;;;;43.73;25.73;;;-0.90;59.80;;;;;;10404230;28;20224;-66
2024/01/11 02:14:54;;;;;;;40.57;26.20;;;-0.90;59.80;;;;;;10402437;28;20286;-67
2024/01/11 02:20:01;;;;;;;42.53;25.07;;;-1.00;59.60;;;;;;10402390;28;20258;-66
2024/01/11 02:25:07;;;;;;;50.30;26.43;;;-1.00;59.80;;;;;;10404631;28;20698;-66
2024/01/11 02:30:11;;;;;;;42.93;24.80;;;-1.00;60.00;;;;;;10405614;28;20269;-66
2024/01/11 02:35:17;;;;;;;48.73;27.23;;;-1.00;60.50;;;;;;10404039;28;20224;-66
2024/01/11 02:40:23;;;;;;;44.57;25.50;;;-1.00;60.10;;;;;;10405025;28;20192;-66
2024/01/11 02:45:26;;;;;;;44.20;25.83;;;-1.00;60.20;;;;;;10405592;28;20223;-66
2024/01/11 02:50:30;;;;;;;41.33;25.17;;;-1.10;60.30;;;;;;10404190;28;20263;-66
2024/01/11 02:55:35;;;;;;;42.17;25.67;;;-1.10;60.60;;;;;;10400656;28;20223;-67
2024/01/11 03:00:38;;;;;;;42.50;25.53;;;-1.10;60.60;;;;;;10403605;28;20234;-66
2024/01/11 03:05:45;;;;;;;43.67;25.57;;;-1.10;60.50;;;;;;10403150;28;20254;-66
2024/01/11 03:10:53;;;;;;;42.80;25.40;;;-1.10;60.20;;;;;;10396917;28;20281;-66
2024/01/11 03:15:57;;;;;;;41.27;24.20;;;-1.10;60.40;;;;;;10404670;28;20775;-66
2024/01/11 03:21:00;;;;;;;40.53;23.43;;;-1.20;60.40;;;;;;10403424;28;20758;-66
2024/01/11 03:26:14;;;;;;;42.23;23.47;;;-1.20;60.70;;;;;;10403507;28;20224;-67
2024/01/11 03:31:17;;;;;;;43.30;24.70;;;-1.20;60.80;;;;;;10402996;28;20682;-66
2024/01/11 03:36:25;;;;;;;41.50;25.10;;;-1.20;60.50;;;;;;10403233;28;20220;-65
2024/01/11 03:41:30;;;;;;;42.67;25.33;;;-1.20;60.40;;;;;;10403612;28;20234;-66
2024/01/11 03:46:33;;;;;;;46.70;26.33;;;-1.30;60.50;;;;;;10402437;28;20285;-66
2024/01/11 03:51:37;;;;;;;42.53;25.40;;;-1.30;60.70;;;;;;10404023;28;20248;-65
2024/01/11 03:56:42;;;;;;;42.47;25.23;;;-1.40;60.70;;;;;;10398790;28;20270;-66
2024/01/11 04:01:46;;;;;;;40.80;25.37;;;-1.30;60.90;;;;;;10402384;28;20199;-66
2024/01/11 04:06:52;;;;;;;41.43;24.07;;;-1.40;61.20;;;;;;10401915;28;20327;-66
2024/01/11 04:11:57;;;;;;;44.20;25.87;;;-1.40;60.50;;;;;;10406462;28;20227;-64
2024/01/11 04:17:01;;;;;;;44.23;26.67;;;-1.40;60.40;;;;;;10402791;28;20248;-64
2024/01/11 04:22:05;;;;;;;39.90;25.30;;;-1.40;60.90;;;;;;10404175;28;20263;-63
2024/01/11 04:27:10;;;;;;;43.40;25.50;;;-1.40;60.50;;;;;;10398935;28;20250;-63
2024/01/11 04:32:16;;;;;;;42.37;25.23;;;-1.40;61.60;;;;;;10402461;28;20752;-68
2024/01/11 04:37:20;;;;;;;44.40;26.43;;;-1.40;60.50;;;;;;10401507;28;20227;-68
2024/01/11 04:42:25;;;;;;;41.33;24.10;;;-1.40;60.80;;;;;;10405887;28;20197;-68
2024/01/11 04:47:28;;;;;;;44.87;24.97;;;-1.40;60.80;;;;;;10402711;28;20224;-68
2024/01/11 04:52:32;;;;;;;43.50;25.17;;;-1.40;61.00;;;;;;10407899;28;20267;-67
2024/01/11 04:57:37;;;;;;;41.00;24.77;;;-1.50;60.70;;;;;;10410116;28;20215;-69
2024/01/11 05:02:41;;;;;;;47.17;26.23;;;-1.50;60.50;;;;;;10410015;28;20197;-67
2024/01/11 05:07:51;;;;;;;43.70;25.40;;;-1.50;60.60;;;;;;10405878;28;20224;-68
2024/01/11 05:12:56;;;;;;;45.13;26.67;;;-1.50;60.70;;;;;;10413618;28;20227;-69
2024/01/11 05:17:59;;;;;;;45.77;26.17;;;-1.50;60.60;;;;;;10402893;28;20219;-68
2024/01/11 05:23:03;;;;;;;46.93;25.93;;;-1.50;60.80;;;;;;10408405;28;20250;-67
2024/01/11 05:28:11;;;;;;;43.60;24.93;;;-1.50;60.70;;;;;;10408038;28;20300;-66
2024/01/11 05:33:15;;;;;;;43.80;24.43;;;-1.50;60.80;;;;;;10409033;28;20312;-69
2024/01/11 05:38:18;;;;;;;42.23;25.33;;;-1.60;60.70;;;;;;10405454;28;20228;-68
2024/01/11 05:43:24;;;;;;;44.23;24.87;;;-1.60;60.90;;;;;;10404781;28;20559;-70
2024/01/11 05:48:27;;;;;;;43.53;24.73;;;-1.60;60.60;;;;;;10404026;28;20706;-65
2024/01/11 05:53:35;;;;;;;39.27;22.93;;;-1.60;61.50;;;;;;10403742;28;20255;-65
2024/01/11 05:58:44;;;;;;;45.53;25.90;;;-1.60;60.90;;;;;;10410610;28;20242;-67
2024/01/11 06:03:47;;;;;;;42.67;25.27;;;-1.60;60.70;;;;;;10406287;28;20207;-68
2024/01/11 06:08:58;;;;;;;41.37;25.20;;;-1.60;60.50;;;;;;10409247;28;20839;-67
2024/01/11 06:14:03;;;;;;;41.93;24.57;;;-1.60;60.50;;;;;;10395245;28;20289;-65
2024/01/11 06:19:15;;;;;;;46.57;28.23;;;-1.60;60.70;;;;;;10404498;28;20552;-65
2024/01/11 06:24:19;;;;;;;42.77;25.23;;;-1.60;60.60;;;;;;10400500;28;20222;-67
2024/01/11 06:29:28;;;;;;;45.97;27.70;;;-1.60;60.60;;;;;;10409137;28;20226;-67
2024/01/11 06:34:33;;;;;;;44.80;26.57;;;-1.60;60.50;;;;;;10406318;28;20775;-66
2024/01/11 06:39:40;;;;;;;47.70;28.10;;;-1.60;60.70;;;;;;10407678;28;20215;-67
2024/01/11 06:44:45;;;;;;;45.53;28.03;;;-1.70;60.80;;;;;;10404954;28;20212;-67
2024/01/11 06:49:54;;;;;;;45.00;27.43;;;-1.70;60.40;;;;;;10405308;28;20269;-63
2024/01/11 06:54:58;;;;;;;44.53;26.13;;;-1.70;60.80;;;;;;10416045;28;20281;-63
2024/01/11 07:00:04;;;;;;;45.60;26.63;;;-1.70;61.10;;;;;;10399180;28;20282;-69
2024/01/11 07:05:10;;;;;;;45.17;26.37;;;-1.70;61.20;;;;;;10400765;28;20227;-65
2024/01/11 07:10:17;;;;;;;41.33;25.37;;;-1.70;61.20;;;;;;10407584;28;20200;-66
2024/01/11 07:15:23;;;;;;;52.40;27.80;;;-1.80;61.00;;;;;;10410893;28;20772;-66
2024/01/11 07:20:28;;;;;;;49.07;30.60;;;-1.80;61.10;;;;;;10411215;28;20532;-65
2024/01/11 07:25:32;;;;;;;50.97;28.67;;;-1.80;60.90;;;;;;10410260;28;20227;-61
2024/01/11 07:30:37;;;;;;;48.73;26.87;;;-1.80;61.00;;;;;;10408487;28;20199;-61
2024/01/11 07:35:40;;;;;;;43.20;26.20;;;-1.80;61.50;;;;;;10410277;28;20223;-61
2024/01/11 07:40:44;;;;;;;42.80;26.60;;;-1.70;61.80;;;;;;10408901;28;20797;-61
2024/01/11 07:45:50;;;;;;;47.23;26.43;;;-1.70;61.50;;;;;;10408847;28;20270;-61
2024/01/11 07:50:55;;;;;;;46.97;27.10;;;-1.70;61.50;;;;;;10422731;28;20222;-61
2024/01/11 07:56:01;;;;;;;45.70;26.30;;;-1.80;61.40;;;;;;10409367;28;20687;-62
2024/01/11 08:01:06;;;;;;;46.67;27.33;;;-1.80;61.50;;;;;;10409090;28;20200;-60
2024/01/11 08:06:10;;;;;;;46.60;27.50;;;-1.70;61.60;;;;;;10408828;28;20231;-61
2024/01/11 08:11:14;;;;;;;48.17;27.67;;;-1.70;61.70;;;;;;10416748;28;20273;-62
2024/01/11 08:16:22;;;;;;;49.40;28.73;;;-1.70;61.70;;;;;;10416895;28;20223;-73
2024/01/11 08:21:28;;;;;;;46.77;27.77;;;-1.70;61.70;;;;;;10414237;28;20208;-60
2024/01/11 08:26:38;;;;;;;46.97;27.93;;;-1.70;62.00;;;;;;10411338;28;20218;-64
2024/01/11 08:31:43;;;;;;;51.17;29.07;;;-1.60;62.30;;;;;;10449906;28;20203;-62
2024/01/11 08:36:47;;;;;;;47.03;27.63;;;-1.60;62.30;;;;;;10456841;28;20240;-61
2024/01/11 08:41:54;;;;;;;53.53;27.87;;;-1.60;62.30;;;;;;10432841;28;20199;-62
2024/01/11 08:46:59;;;;;;;49.57;29.07;;;-1.60;62.30;;;;;;10414210;28;20219;-61
2024/01/11 08:52:03;;;;;;;44.97;27.33;;;-1.50;62.30;;;;;;10415509;28;20220;-62
2024/01/11 08:57:07;;;;;;;46.97;27.07;;;-1.50;62.30;;;;;;10415033;28;20731;-61
2024/01/11 09:02:12;;;;;;;45.77;25.90;;;-1.50;62.10;;;;;;10414484;28;20204;-63
2024/01/11 09:07:22;;;;;;;51.93;29.23;;;-1.40;62.20;;;;;;10413547;28;20289;-62
2024/01/11 09:12:25;;;;;;;49.93;27.97;;;-1.40;61.90;;;;;;10430915;28;20257;-62
2024/01/11 09:17:30;;;;;;;48.20;28.63;;;-1.40;62.00;;;;;;10455579;28;20280;-61
2024/01/11 09:22:34;;;;;;;51.43;27.77;;;-1.30;62.20;;;;;;10447654;28;20196;-61
2024/01/11 09:27:37;;;;;;;44.73;26.17;;;-1.30;62.10;;;;;;10418951;28;20585;-63
2024/01/11 09:32:44;;;;;;;48.53;35.60;;;-1.20;62.30;;;;;;10426633;28;20531;-62
2024/01/11 09:37:47;;;;;;;47.43;27.80;;;-1.00;62.10;;;;;;10413987;28;20219;-61
2024/01/11 09:42:52;;;;;;;44.80;26.67;;;-1.00;62.20;;;;;;10383789;28;20861;-59
2024/01/11 09:47:57;;;;;;;44.87;27.70;;;-0.90;62.30;;;;;;10422541;28;20228;-63
2024/01/11 09:53:05;;;;;;;49.93;28.37;;;-0.90;62.10;;;;;;10416999;28;20281;-62
2024/01/11 09:58:19;;;;;;;46.80;27.00;;;-0.90;62.30;;;;;;10409925;28;20275;-61
2024/01/11 10:03:27;;;;;;;41.80;26.60;;;-0.80;62.60;;;;;;10419542;28;20266;-60
2024/01/11 10:08:32;;;;;;;45.03;27.53;;;-0.70;63.10;;;;;;10401651;28;20286;-61
2024/01/11 10:13:38;;;;;;;47.65;36.53;;;-0.70;62.40;;;;;;10417339;28;20816;-60
2024/01/11 10:18:44;;;;;;;46.47;29.03;;;-0.40;62.30;;;;;;10426785;28;20210;-62
2024/01/11 10:23:48;;;;;;;46.27;28.37;;;-0.30;62.10;;;;;;10412725;28;20226;-61
2024/01/11 10:28:51;;;;;;;49.10;27.50;;;-0.30;62.20;;;;;;10454319;28;20215;-63
2024/01/11 10:33:56;;;;;;;49.63;36.35;;;-0.30;62.60;;;;;;10450332;28;21169;-62
2024/01/11 10:39:04;;;;;;;42.87;28.57;;;-0.10;62.40;;;;;;10416591;28;20691;-60
2024/01/11 10:44:14;;;;;;;44.60;26.43;;;0.00;62.70;;;;;;10413267;28;20226;-61
2024/01/11 10:49:20;;;;;;;46.50;27.53;;;0.00;62.10;;;;;;10422197;28;20276;-61
2024/01/11 10:54:24;;;;;;;42.03;25.40;;;0.10;62.40;;;;;;10410992;28;20268;-59
2024/01/11 10:59:28;;;;;;;37.37;24.13;;;0.10;62.30;;;;;;10414966;28;20204;-59
2024/01/11 11:04:34;;;;;;;45.33;32.58;;;0.20;62.90;;;;;;10410823;28;20442;-61
2024/01/11 11:09:43;;;;;;;41.23;25.43;;;0.40;62.10;;;;;;10412338;28;20200;-61
2024/01/11 11:14:49;;;;;;;38.10;23.80;;;0.50;62.10;;;;;;10411925;28;20287;-60
2024/01/11 11:19:54;;;;;;;37.43;23.83;;;0.60;61.50;;;;;;10411827;28;20230;-60
2024/01/11 11:25:05;;;;;;;35.70;24.20;;;0.60;61.10;;;;;;10411849;28;20220;-60
2024/01/11 11:30:10;;;;;;;35.27;23.70;;;0.60;61.10;;;;;;10411708;28;20262;-61
2024/01/11 11:35:15;;;;;;;36.33;22.90;;;0.70;60.90;;;;;;10413690;28;20867;-62
2024/01/11 11:40:21;;;;;;;39.37;22.97;;;0.80;60.90;;;;;;10410808;28;20192;-61
2024/01/11 11:45:26;;;;;;;34.73;22.57;;;0.80;60.50;;;;;;10410320;28;20246;-59
2024/01/11 11:50:32;;;;;;;36.93;23.20;;;0.90;60.70;;;;;;10419288;28;20211;-61
2024/01/11 11:55:36;;;;;;;38.10;22.20;;;0.90;60.40;;;;;;10419192;28;20223;-60
2024/01/11 12:00:41;;;;;;;34.13;20.77;;;1.00;60.40;;;;;;10419164;28;20226;-62
2024/01/11 12:05:47;;;;;;;32.80;22.40;;;1.10;60.40;;;;;;10417564;28;20228;-63
2024/01/11 12:10:51;;;;;;;39.53;28.83;;;1.20;60.40;;;;;;10440640;28;20491;-63
2024/01/11 12:15:55;;;;;;;36.40;22.00;;;1.40;59.80;;;;;;10418336;28;20293;-61
2024/01/11 12:21:00;;;;;;;34.80;27.27;;;1.40;59.80;;;;;;10443078;28;20444;-60
2024/01/11 12:26:11;;;;;;;32.23;19.60;;;1.60;59.90;;;;;;10423363;28;20293;-60
2024/01/11 12:31:17;;;;;;;30.53;19.80;;;1.60;59.20;;;;;;10403063;28;20261;-61
2024/01/11 12:36:22;;;;;;;30.13;20.27;;;1.70;59.20;;;;;;10409705;28;20252;-63
2024/01/11 12:41:26;;;;;;;32.87;20.97;;;1.90;59.30;;;;;;10412542;28;20257;-63
2024/01/11 12:46:29;;;;;;;33.13;19.53;;;2.20;59.70;;;;;;10415291;28;20582;-63
2024/01/11 12:51:37;;;;;;;33.70;19.03;;;2.50;59.20;;;;;;10405893;28;20209;-64
2024/01/11 12:56:43;;;;;;;33.37;18.37;;;2.70;58.70;;;;;;10407494;28;20314;-64
2024/01/11 13:01:48;;;;;;;25.70;16.17;;;2.90;58.40;;;;;;10401573;28;22001;-63
2024/01/11 13:06:54;;;;;;;26.57;17.43;;;3.10;58.80;;;;;;10410762;28;20254;-64
2024/01/11 13:11:57;;;;;;;27.13;17.00;;;3.20;59.60;;;;;;10402638;28;20270;-63
2024/01/11 13:17:01;;;;;;;25.50;16.97;;;3.40;61.30;;;;;;10398676;28;20283;-64
2024/01/11 13:22:06;;;;;;;27.00;16.23;;;3.50;62.00;;;;;;10410435;28;20209;-64
2024/01/11 13:27:10;;;;;;;24.47;15.97;;;3.60;59.80;;;;;;10408766;28;20218;-63
2024/01/11 13:32:13;;;;;;;28.73;15.80;;;3.50;61.30;;;;;;10408045;28;20587;-64
2024/01/11 13:37:18;;;;;;;23.93;15.50;;;3.50;58.00;;;;;;10408874;28;20284;-64
2024/01/11 13:42:22;;;;;;;27.10;17.63;;;3.40;57.30;;;;;;10408500;28;20201;-64
2024/01/11 13:47:25;;;;;;;25.57;16.17;;;3.30;57.40;;;;;;10407174;28;20293;-64
2024/01/11 13:52:30;;;;;;;23.97;15.87;;;3.10;57.50;;;;;;10399104;28;20252;-64
2024/01/11 13:57:34;;;;;;;21.30;14.80;;;3.00;57.40;;;;;;10405175;28;20250;-64
2024/01/11 14:02:39;;;;;;;24.77;15.50;;;2.90;57.70;;;;;;10398692;28;20615;-70
2024/01/11 14:07:46;;;;;;;24.30;14.83;;;2.90;58.10;;;;;;10404791;28;20221;-64
2024/01/11 14:12:50;;;;;;;22.13;14.80;;;2.80;59.10;;;;;;10412118;28;20212;-63
2024/01/11 14:17:54;;;;;;;20.10;14.37;;;2.80;58.20;;;;;;10411380;28;20677;-63
2024/01/11 14:22:59;;;;;;;18.80;11.93;;;2.80;58.20;;;;;;10413938;28;20646;-65
2024/01/11 14:28:04;;;;;;;18.07;12.43;;;2.70;59.00;;;;;;10410304;28;20220;-64
2024/01/11 14:33:07;;;;;;;20.37;12.93;;;2.70;59.60;;;;;;10407761;28;20203;-64
2024/01/11 14:38:14;;;;;;;21.37;12.90;;;2.60;59.90;;;;;;10407505;28;20227;-64
2024/01/11 14:43:17;;;;;;;22.17;12.70;;;2.50;60.50;;;;;;10407131;28;20205;-65
2024/01/11 14:48:21;;;;;;;18.63;12.67;;;2.50;62.00;;;;;;10411184;28;20219;-65
2024/01/11 14:53:27;;;;;;;18.57;13.17;;;2.50;61.40;;;;;;10410829;28;20628;-63
2024/01/11 14:58:31;;;;;;;20.43;12.70;;;2.50;62.10;;;;;;10406920;28;20258;-64
2024/01/11 15:03:35;;;;;;;19.17;11.97;;;2.50;62.20;;;;;;10412601;28;20192;-64
2024/01/11 15:08:40;;;;;;;17.20;9.93;;;2.60;62.90;;;;;;10409867;28;20281;-64
2024/01/11 15:13:43;;;;;;;12.57;8.87;;;2.60;64.40;;;;;;10410199;28;20736;-64
2024/01/11 15:18:47;;;;;;;11.83;7.80;;;2.60;65.60;;;;;;10404833;28;20321;-64
2024/01/11 15:23:52;;;;;;;12.33;7.90;;;2.60;66.50;;;;;;10410189;28;20201;-64
2024/01/11 15:28:56;;;;;;;12.37;8.20;;;2.50;67.40;;;;;;10406811;28;20267;-64
2024/01/11 15:33:59;;;;;;;12.00;7.53;;;2.40;68.30;;;;;;10408791;28;20231;-65
2024/01/11 15:39:05;;;;;;;10.50;6.87;;;2.40;68.80;;;;;;10407643;28;20885;-65
2024/01/11 15:44:28;;;;;;;11.70;6.67;;;2.60;73.40;;;;;;10403028;28;20211;-65
2024/01/11 15:49:32;;;;;;;11.20;6.87;;;2.70;70.70;;;;;;10397294;28;20199;-65
2024/01/11 15:54:37;;;;;;;6.97;5.13;;;2.60;71.00;;;;;;10396894;28;20206;-64
2024/01/11 15:59:41;;;;;;;6.87;5.00;;;2.50;70.60;;;;;;10403201;28;20295;-65
2024/01/11 16:04:45;;;;;;;7.17;4.10;;;2.40;72.10;;;;;;10404541;28;20289;-65
2024/01/11 16:09:50;;;;;;;6.50;3.83;;;2.40;71.70;;;;;;10399674;28;20613;-65
2024/01/11 16:14:57;;;;;;;6.60;4.67;;;2.30;72.80;;;;;;10406574;28;20449;-64
2024/01/11 16:20:01;;;;;;;4.97;3.60;;;2.30;73.20;;;;;;10403221;28;20613;-64
2024/01/11 16:25:06;;;;;;;5.77;4.20;;;2.30;74.70;;;;;;10400755;28;20223;-64
2024/01/11 16:30:11;;;;;;;7.17;5.13;;;2.40;74.20;;;;;;10401064;28;20212;-64
2024/01/11 16:35:15;;;;;;;8.93;7.43;;;2.40;75.20;;;;;;10405794;28;20244;-68
2024/01/11 16:40:20;;;;;;;8.27;5.90;;;2.40;75.60;;;;;;10409288;28;20224;-66
2024/01/11 16:45:24;;;;;;;13.23;9.27;;;2.30;74.50;;;;;;10401846;28;20224;-66
2024/01/11 16:50:29;;;;;;;28.40;19.00;;;2.30;75.70;;;;;;10400889;28;20633;-66
2024/01/11 16:55:35;;;;;;;14.77;10.07;;;2.30;76.10;;;;;;10409668;28;20285;-66
2024/01/11 17:00:38;;;;;;;13.23;9.20;;;2.30;75.70;;;;;;10408644;28;20265;-66
2024/01/11 17:05:42;;;;;;;15.03;11.70;;;2.30;76.30;;;;;;10410666;28;20234;-66
2024/01/11 17:10:47;;;;;;;16.87;11.50;;;2.30;76.80;;;;;;10403023;28;20257;-67
2024/01/11 17:15:51;;;;;;;14.33;10.33;;;2.40;77.50;;;;;;10412478;28;20220;-66
2024/01/11 17:20:54;;;;;;;14.87;9.87;;;2.40;78.10;;;;;;10411456;28;20207;-66
2024/01/11 17:26:00;;;;;;;16.40;9.47;;;2.40;78.10;;;;;;10413343;28;20250;-66
2024/01/11 17:31:03;;;;;;;14.67;8.90;;;2.40;79.10;;;;;;10402644;28;20234;-66
2024/01/11 17:36:27;;;;;;;16.27;9.17;;;2.40;78.00;;;;;;10425582;23;20254;-67
2024/01/11 17:42:26;;;;;;;13.40;9.43;;;2.40;78.70;;;;;;10408683;28;20261;-66
2024/01/11 17:47:49;;;;;;;18.47;9.33;;;2.40;79.00;;;;;;10374210;28;20225;-66
2024/01/11 17:52:53;;;;;;;17.57;10.53;;;2.40;79.00;;;;;;10368105;28;20259;-70
2024/01/11 17:57:58;;;;;;;19.93;12.10;;;2.40;79.00;;;;;;10369818;28;20306;-67
2024/01/11 18:03:03;;;;;;;21.07;12.20;;;2.40;79.50;;;;;;10372746;28;20228;-65
2024/01/11 18:08:28;;;;;;;23.23;12.87;;;2.40;79.70;;;;;;10369959;28;20240;-68
2024/01/11 18:13:32;;;;;;;26.00;14.20;;;2.40;79.30;;;;;;10367819;28;20318;-66
2024/01/11 18:18:37;;;;;;;22.00;12.87;;;2.40;79.80;;;;;;10370316;28;20256;-66
2024/01/11 18:23:42;;;;;;;24.13;14.30;;;2.40;80.60;;;;;;10371477;28;20275;-66
2024/01/11 18:28:46;;;;;;;26.33;15.93;;;2.40;80.40;;;;;;10377408;28;20203;-65
2024/01/11 18:33:51;;;;;;;27.40;16.27;;;2.40;81.20;;;;;;10374187;28;20258;-68
2024/01/11 18:38:57;;;;;;;29.93;18.50;;;2.40;81.40;;;;;;10368379;28;20255;-65
2024/01/11 18:44:01;;;;;;;27.43;17.03;;;2.40;81.60;;;;;;10362810;28;20260;-65
2024/01/11 18:49:07;;;;;;;28.27;16.73;;;2.40;81.70;;;;;;10359514;28;20236;-66
2024/01/11 18:54:11;;;;;;;28.73;17.07;;;2.50;81.10;;;;;;10366471;28;20264;-66
2024/01/11 18:59:16;;;;;;;28.90;18.13;;;2.40;82.50;;;;;;10370275;28;20256;-66
2024/01/11 19:04:21;;;;;;;31.90;17.97;;;2.40;82.80;;;;;;10366144;28;20333;-67
2024/01/11 19:09:26;;;;;;;31.07;16.67;;;2.40;82.70;;;;;;10370049;28;20664;-67
2024/01/11 19:14:29;;;;;;;32.20;18.33;;;2.40;83.30;;;;;;10367832;28;20259;-66
2024/01/11 19:19:36;;;;;;;32.83;18.33;;;2.50;83.10;;;;;;10366810;28;20632;-66
2024/01/11 19:24:40;;;;;;;31.57;18.30;;;2.50;83.70;;;;;;10364824;28;20283;-67
2024/01/11 19:29:43;;;;;;;34.43;19.13;;;2.40;82.40;;;;;;10368861;28;20838;-66
2024/01/11 19:34:48;;;;;;;31.27;18.77;;;2.40;83.70;;;;;;10363164;28;20307;-65
2024/01/11 19:39:52;;;;;;;32.23;18.20;;;2.40;83.80;;;;;;10358544;28;20323;-67
2024/01/11 19:44:56;;;;;;;28.07;18.03;;;2.40;83.60;;;;;;10370572;28;20248;-66
2024/01/11 19:50:01;;;;;;;29.23;18.07;;;2.40;83.10;;;;;;10365721;28;20671;-68
2024/01/11 19:55:05;;;;;;;29.20;18.60;;;2.40;83.90;;;;;;10364705;28;20888;-68
2024/01/11 20:00:10;;;;;;;33.07;18.63;;;2.40;83.20;;;;;;10369666;28;20251;-67
2024/01/11 20:05:15;;;;;;;34.67;19.70;;;2.40;83.70;;;;;;10372373;28;20273;-66
2024/01/11 20:10:19;;;;;;;36.03;19.07;;;2.40;83.50;;;;;;10376551;28;20756;-66
2024/01/11 20:15:23;;;;;;;33.83;19.60;;;2.40;84.30;;;;;;10373560;28;20305;-66
2024/01/11 20:20:28;;;;;;;39.83;22.17;;;2.40;83.40;;;;;;10378108;28;20243;-66
2024/01/11 20:25:32;;;;;;;36.73;20.83;;;2.40;84.70;;;;;;10372882;28;20255;-65
2024/01/11 20:30:36;;;;;;;34.93;21.60;;;2.40;84.00;;;;;;10375734;28;20236;-66
2024/01/11 20:35:41;;;;;;;37.70;21.83;;;2.40;84.90;;;;;;10375905;28;20271;-64
2024/01/11 20:40:45;;;;;;;37.67;22.63;;;2.40;85.50;;;;;;10373618;28;20304;-68
2024/01/11 20:45:49;;;;;;;37.23;22.50;;;2.40;84.30;;;;;;10371542;28;20298;-67
2024/01/11 20:50:54;;;;;;;39.70;22.83;;;2.40;85.50;;;;;;10370269;28;20254;-68
2024/01/11 20:55:58;;;;;;;39.53;23.53;;;2.40;85.70;;;;;;10371481;28;20267;-65
2024/01/11 21:01:02;;;;;;;38.73;23.57;;;2.40;86.20;;;;;;10376537;28;20258;-67
2024/01/11 21:06:08;;;;;;;37.53;23.17;;;2.50;86.30;;;;;;10371018;28;20310;-66
2024/01/11 21:11:16;;;;;;;38.93;23.43;;;2.50;85.60;;;;;;10371530;28;20233;-68
2024/01/11 21:16:20;;;;;;;41.17;25.53;;;2.50;86.20;;;;;;10367528;28;20280;-65
2024/01/11 21:21:26;;;;;;;43.07;26.57;;;2.50;87.10;;;;;;10374800;28;20307;-62
2024/01/11 21:26:30;;;;;;;41.30;25.17;;;2.50;86.00;;;;;;10372505;28;20259;-63
2024/01/11 21:31:34;;;;;;;42.57;25.13;;;2.50;87.50;;;;;;10369402;28;20639;-66
2024/01/11 21:36:39;;;;;;;44.07;26.33;;;2.50;86.90;;;;;;10368757;28;20309;-64
2024/01/11 21:41:43;;;;;;;42.03;26.87;;;2.50;87.10;;;;;;10373216;28;20287;-63
2024/01/11 21:46:47;;;;;;;40.63;25.90;;;2.50;87.40;;;;;;10366890;28;20285;-68
2024/01/11 21:51:52;;;;;;;41.80;25.03;;;2.60;87.90;;;;;;10365506;28;20276;-63
2024/01/11 21:56:56;;;;;;;47.37;28.87;;;2.60;88.10;;;;;;10365921;28;20224;-64
2024/01/11 22:02:00;;;;;;;48.10;29.13;;;2.60;87.80;;;;;;10367193;28;20229;-64
2024/01/11 22:07:05;;;;;;;49.93;28.77;;;2.60;88.00;;;;;;10365866;28;20232;-63
2024/01/11 22:12:11;;;;;;;46.60;27.77;;;2.60;88.70;;;;;;10365612;28;20726;-67
2024/01/11 22:17:15;;;;;;;51.50;29.27;;;2.60;88.20;;;;;;10365365;28;20799;-65
2024/01/11 22:22:20;;;;;;;47.67;28.60;;;2.60;88.60;;;;;;10363429;28;20228;-65
2024/01/11 22:27:24;;;;;;;50.00;29.17;;;2.60;88.20;;;;;;10362257;28;20648;-66
2024/01/11 22:32:28;;;;;;;50.87;30.07;;;2.60;88.50;;;;;;10361927;28;20214;-66
2024/01/11 22:37:33;;;;;;;55.33;30.37;;;2.60;88.70;;;;;;10363073;28;20236;-66
2024/01/11 22:42:37;;;;;;;55.77;31.53;;;2.60;88.80;;;;;;10362141;28;20341;-67
2024/01/11 22:47:40;;;;;;;47.87;29.57;;;2.60;89.40;;;;;;10366430;28;20231;-63
2024/01/11 22:52:46;;;;;;;46.63;29.37;;;2.60;89.30;;;;;;10370073;28;20278;-64
2024/01/11 22:57:49;;;;;;;49.83;29.63;;;2.60;89.00;;;;;;10361310;28;20785;-64
2024/01/11 23:02:53;;;;;;;47.10;29.73;;;2.60;88.40;;;;;;10363220;28;20793;-64
2024/01/11 23:07:59;;;;;;;46.20;29.27;;;2.60;89.20;;;;;;10364366;28;20230;-66
2024/01/11 23:13:04;;;;;;;48.13;28.87;;;2.70;89.40;;;;;;10360476;28;20236;-64
2024/01/11 23:18:08;;;;;;;48.90;27.77;;;2.70;89.20;;;;;;10363342;28;20248;-64
2024/01/11 23:23:14;;;;;;;45.83;29.40;;;2.70;89.30;;;;;;10366914;28;20654;-66
2024/01/11 23:28:17;;;;;;;47.53;29.80;;;2.70;89.50;;;;;;10363003;28;20735;-66
2024/01/11 23:33:21;;;;;;;56.23;30.73;;;2.70;89.00;;;;;;10365887;28;20336;-67
2024/01/11 23:38:26;;;;;;;51.20;30.70;;;2.70;89.20;;;;;;10362472;28;20248;-65
2024/01/11 23:43:30;;;;;;;55.00;31.43;;;2.60;89.50;;;;;;10358353;28;20703;-67
2024/01/11 23:48:36;;;;;;;55.90;32.47;;;2.70;90.10;;;;;;10364318;28;20231;-65
2024/01/11 23:53:41;;;;;;;54.77;31.33;;;2.70;89.90;;;;;;10362077;28;20317;-65
2024/01/11 23:58:45;;;;;;;51.53;31.00;;;2.70;90.00;;;;;;10362562;28;20330;-65
